Time;durP1;ratioP1;P1;durP2;ratioP2;P2;SDS_P1;SDS_P2;PMS_P1;PMS_P2;Temp;Humidity;BMP_temperature;BMP_pressure;BME280_temperature;BME280_humidity;BME280_pressure;Samples;Min_cycle;Max_cycle;Signal;HPM_P1;HPM_P2
2022/11/10 00:00:53;;;;;;;12.27;3.10;;;10.40;86.60;;;;;;5035544;28;20036;-39
2022/11/10 00:03:19;;;;;;;8.68;3.92;;;10.40;86.90;;;;;;5053317;28;20095;-39
2022/11/10 00:05:44;;;;;;;14.65;5.80;;;10.50;86.70;;;;;;5035480;28;20108;-38
2022/11/10 00:08:11;;;;;;;11.77;3.42;;;10.40;86.80;;;;;;5053472;28;20032;-38
2022/11/10 00:10:55;;;;;;;12.57;3.10;;;10.40;86.80;;;;;;5052898;28;20037;-40
2022/11/10 00:13:25;;;;;;;9.82;2.97;;;10.40;87.00;;;;;;5053361;28;20040;-38
2022/11/10 00:18:35;;;;;;;17.08;3.88;;;10.40;86.90;;;;;;5053557;28;20516;-39
2022/11/10 00:21:06;;;;;;;11.80;2.85;;;10.40;87.20;;;;;;5053516;28;20057;-39
2022/11/10 00:23:32;;;;;;;9.98;3.17;;;10.40;87.10;;;;;;5053123;28;20036;-39
2022/11/10 00:25:58;;;;;;;10.02;3.63;;;10.30;87.10;;;;;;5052942;28;20021;-38
2022/11/10 00:28:24;;;;;;;10.80;3.75;;;10.30;87.30;;;;;;5052836;28;20104;-38
2022/11/10 00:30:49;;;;;;;17.05;4.85;;;10.30;87.30;;;;;;5035132;28;20112;-38
2022/11/10 00:33:15;;;;;;;24.02;3.83;;;10.30;87.20;;;;;;5057069;28;20048;-38
2022/11/10 00:35:41;;;;;;;17.25;4.43;;;10.40;87.10;;;;;;5038919;28;20108;-38
2022/11/10 00:38:06;;;;;;;18.20;6.18;;;10.30;87.30;;;;;;5057096;28;20059;-38
2022/11/10 00:40:32;;;;;;;15.48;4.28;;;10.30;87.50;;;;;;5057317;28;20033;-39
2022/11/10 00:42:58;;;;;;;12.40;3.55;;;10.20;87.60;;;;;;5038796;28;20032;-39
2022/11/10 00:45:23;;;;;;;15.27;3.83;;;10.10;87.70;;;;;;5057027;28;20160;-38
2022/11/10 00:47:49;;;;;;;14.75;4.28;;;10.10;88.00;;;;;;5056609;28;20078;-38
2022/11/10 00:50:14;;;;;;;21.95;3.70;;;10.10;88.20;;;;;;5057044;28;20078;-38
2022/11/10 00:52:40;;;;;;;9.68;3.88;;;10.00;88.20;;;;;;5056580;28;20493;-39
2022/11/10 00:55:06;;;;;;;15.43;4.78;;;10.00;88.30;;;;;;5056580;28;20021;-39
2022/11/10 00:57:32;;;;;;;19.27;6.38;;;10.10;88.20;;;;;;5056718;28;20056;-40
2022/11/10 00:59:57;;;;;;;9.18;3.35;;;10.00;88.40;;;;;;5056507;28;20048;-39
2022/11/10 01:02:23;;;;;;;12.60;3.90;;;10.00;88.30;;;;;;5057205;28;20025;-38
2022/11/10 01:04:49;;;;;;;10.63;3.30;;;10.00;88.20;;;;;;5056439;28;20359;-37
2022/11/10 01:07:14;;;;;;;16.90;4.65;;;9.90;88.50;;;;;;5056374;28;20039;-39
2022/11/10 01:09:40;;;;;;;16.00;3.60;;;9.80;88.50;;;;;;5038285;28;20051;-39
2022/11/10 01:12:06;;;;;;;15.50;4.68;;;9.80;88.80;;;;;;5056489;28;20021;-38
2022/11/10 01:14:31;;;;;;;21.10;4.70;;;9.80;89.00;;;;;;5056247;28;20092;-38
2022/11/10 01:16:57;;;;;;;17.08;3.67;;;9.70;89.10;;;;;;5056552;28;20059;-39
2022/11/10 01:19:22;;;;;;;10.43;3.60;;;9.70;89.20;;;;;;5056477;28;20024;-40
2022/11/10 01:21:51;;;;;;;8.93;3.72;;;9.70;89.40;;;;;;5056356;28;20469;-39
2022/11/10 01:24:19;;;;;;;15.25;3.70;;;9.70;89.40;;;;;;5056129;28;20040;-38
2022/11/10 01:26:45;;;;;;;15.75;4.38;;;9.70;89.30;;;;;;5056310;28;20044;-38
2022/11/10 01:29:11;;;;;;;15.32;3.33;;;9.70;89.50;;;;;;5056264;28;20024;-39
2022/11/10 01:31:39;;;;;;;11.82;3.60;;;9.70;89.40;;;;;;5055816;28;20103;-39
2022/11/10 01:34:05;;;;;;;16.70;3.67;;;9.70;89.40;;;;;;5056103;28;20017;-39
2022/11/10 01:36:30;;;;;;;12.75;4.05;;;9.70;89.40;;;;;;5055850;28;20159;-39
2022/11/10 01:38:56;;;;;;;16.25;5.07;;;9.70;89.40;;;;;;5037848;28;20036;-39
2022/11/10 01:41:22;;;;;;;11.82;3.78;;;9.70;89.50;;;;;;5055771;28;20033;-39
2022/11/10 01:43:48;;;;;;;8.57;4.88;;;9.60;89.50;;;;;;5055142;28;20405;-39
2022/11/10 01:46:14;;;;;;;14.73;3.17;;;9.60;89.50;;;;;;5055859;28;20079;-41
2022/11/10 01:48:45;;;;;;;10.48;4.60;;;9.50;89.70;;;;;;5055650;28;20103;-39
2022/11/10 01:51:19;;;;;;;9.65;2.90;;;9.50;89.70;;;;;;5055849;28;20495;-40
2022/11/10 01:53:48;;;;;;;12.30;3.58;;;9.60;89.70;;;;;;5037842;28;20021;-39
2022/11/10 01:56:15;;;;;;;12.65;3.10;;;9.50;89.50;;;;;;5055562;28;20544;-39
2022/11/10 01:58:47;;;;;;;8.45;3.03;;;9.50;89.80;;;;;;5055681;28;20420;-39
2022/11/10 02:01:13;;;;;;;11.43;2.90;;;9.50;89.70;;;;;;5038003;28;20385;-39
2022/11/10 02:03:50;;;;;;;8.77;2.95;;;9.50;89.80;;;;;;5055618;28;20028;-39
2022/11/10 02:06:18;;;;;;;15.57;3.33;;;9.60;89.70;;;;;;5055658;28;20021;-39
2022/11/10 02:08:45;;;;;;;15.98;2.92;;;9.50;89.70;;;;;;5055366;28;20029;-39
2022/11/10 02:11:11;;;;;;;14.00;4.07;;;9.50;89.70;;;;;;5062321;28;20048;-39
2022/11/10 02:13:37;;;;;;;14.48;3.78;;;9.50;89.90;;;;;;5075351;28;20024;-39
2022/11/10 02:16:03;;;;;;;11.30;3.92;;;9.50;89.80;;;;;;5074146;28;20417;-39
2022/11/10 02:18:29;;;;;;;17.30;3.42;;;9.50;89.90;;;;;;5075244;28;20096;-39
2022/11/10 02:20:54;;;;;;;17.67;2.90;;;9.50;89.90;;;;;;5074879;28;20032;-39
2022/11/10 02:23:29;;;;;;;17.17;4.10;;;9.50;89.90;;;;;;5074844;28;20095;-39
2022/11/10 02:25:56;;;;;;;10.23;2.75;;;9.60;89.80;;;;;;5074777;28;20039;-39
2022/11/10 02:28:22;;;;;;;20.63;5.03;;;9.60;89.70;;;;;;5073392;28;20032;-39
2022/11/10 02:30:56;;;;;;;10.18;3.58;;;9.60;89.80;;;;;;5074934;28;20499;-39
2022/11/10 02:33:22;;;;;;;14.52;4.18;;;9.70;89.70;;;;;;5074979;28;20059;-39
2022/11/10 02:35:47;;;;;;;11.80;4.15;;;9.80;89.50;;;;;;5074719;28;20020;-39
2022/11/10 02:38:13;;;;;;;16.65;3.40;;;9.80;89.30;;;;;;5073418;28;20070;-39
2022/11/10 02:40:40;;;;;;;11.75;3.42;;;9.80;89.30;;;;;;5074703;28;20024;-39
2022/11/10 02:43:09;;;;;;;15.10;4.15;;;9.80;89.40;;;;;;5074692;28;20028;-39
2022/11/10 02:45:40;;;;;;;12.60;3.03;;;9.80;89.40;;;;;;5075091;28;20028;-39
2022/11/10 02:48:06;;;;;;;5.15;2.28;;;9.70;89.40;;;;;;5074460;28;20115;-39
2022/11/10 02:50:32;;;;;;;21.33;3.72;;;9.70;89.40;;;;;;5073254;28;20082;-39
2022/11/10 02:52:58;;;;;;;15.63;3.35;;;9.70;89.40;;;;;;5074853;28;20464;-39
2022/11/10 02:55:23;;;;;;;9.93;2.80;;;9.70;89.50;;;;;;5073550;28;20025;-39
2022/11/10 02:57:49;;;;;;;19.17;4.28;;;9.60;89.50;;;;;;5074638;28;20070;-39
2022/11/10 03:00:15;;;;;;;13.77;2.95;;;9.60;89.60;;;;;;5074616;28;20036;-39
2022/11/10 03:02:40;;;;;;;10.90;3.55;;;9.60;89.70;;;;;;5056310;28;20469;-39
2022/11/10 03:05:06;;;;;;;13.75;2.65;;;9.60;89.70;;;;;;5074461;28;20037;-39
2022/11/10 03:07:32;;;;;;;12.52;3.10;;;9.60;89.80;;;;;;5074745;28;20020;-39
2022/11/10 03:09:57;;;;;;;13.00;3.42;;;9.50;89.70;;;;;;5070933;28;20041;-39
2022/11/10 03:12:23;;;;;;;10.25;3.13;;;9.60;89.90;;;;;;5055601;28;20495;-39
2022/11/10 03:14:48;;;;;;;30.23;3.25;;;9.60;89.80;;;;;;5054554;28;20021;-39
2022/11/10 03:17:14;;;;;;;30.52;3.92;;;9.50;89.70;;;;;;5054714;28;20428;-39
2022/11/10 03:19:40;;;;;;;11.43;3.80;;;9.60;89.90;;;;;;5054776;28;20032;-39
2022/11/10 03:22:05;;;;;;;13.13;3.70;;;9.60;89.70;;;;;;5054569;28;20029;-39
2022/11/10 03:24:31;;;;;;;10.38;4.05;;;9.60;89.80;;;;;;5054517;28;20100;-40
2022/11/10 03:26:56;;;;;;;10.55;2.97;;;9.60;89.90;;;;;;5054354;28;20060;-39
2022/11/10 03:29:22;;;;;;;18.58;3.45;;;9.60;89.80;;;;;;5054539;28;20033;-40
2022/11/10 03:31:47;;;;;;;9.73;2.58;;;9.60;89.80;;;;;;5054385;28;20028;-39
2022/11/10 03:34:13;;;;;;;12.75;3.95;;;9.70;89.80;;;;;;5054632;28;20036;-47
2022/11/10 03:36:39;;;;;;;6.05;3.42;;;9.70;89.70;;;;;;5054788;28;20457;-39
2022/11/10 03:39:04;;;;;;;12.75;2.85;;;9.70;89.70;;;;;;5054428;28;20025;-40
2022/11/10 03:41:30;;;;;;;16.05;3.78;;;9.70;89.60;;;;;;5054775;28;20353;-40
2022/11/10 03:43:56;;;;;;;14.18;3.30;;;9.70;89.50;;;;;;5054233;28;20032;-40
2022/11/10 03:46:21;;;;;;;13.80;3.65;;;9.80;89.50;;;;;;5053654;28;20040;-38
2022/11/10 03:48:47;;;;;;;11.18;3.00;;;9.80;89.40;;;;;;5054125;28;20029;-39
2022/11/10 03:51:13;;;;;;;11.40;3.28;;;9.80;89.30;;;;;;5053685;28;20017;-39
2022/11/10 03:53:38;;;;;;;9.23;2.30;;;9.70;89.30;;;;;;5053373;28;20023;-39
2022/11/10 03:56:05;;;;;;;12.73;3.55;;;9.80;89.30;;;;;;5053297;28;20503;-40
2022/11/10 03:58:31;;;;;;;16.40;3.03;;;9.80;89.30;;;;;;5053346;28;20029;-39
2022/11/10 04:00:57;;;;;;;22.45;5.72;;;9.80;89.30;;;;;;5053162;28;20025;-39
2022/11/10 04:03:23;;;;;;;14.68;4.88;;;9.70;89.30;;;;;;5053266;28;20059;-39
2022/11/10 04:16:48;;;;;;;12.07;3.05;;;9.60;89.90;;;;;;5038647;28;20028;-40
2022/11/10 04:19:14;;;;;;;12.68;3.55;;;9.70;89.60;;;;;;5053066;28;20025;-39
2022/11/10 04:21:39;;;;;;;13.55;3.03;;;9.70;89.70;;;;;;5053263;28;20078;-39
2022/11/10 04:24:05;;;;;;;11.05;2.13;;;9.70;89.80;;;;;;5053002;28;20471;-40
2022/11/10 04:26:32;;;;;;;29.67;5.47;;;9.50;89.70;;;;;;5052914;28;20025;-38
2022/11/10 04:29:03;;;;;;;15.90;2.88;;;9.50;90.00;;;;;;5053087;28;20431;-39
2022/11/10 04:31:31;;;;;;;16.33;3.15;;;9.60;89.90;;;;;;5052877;28;20095;-39
2022/11/10 04:33:57;;;;;;;9.00;3.20;;;9.60;90.00;;;;;;5035398;28;20030;-40
2022/11/10 04:36:27;;;;;;;23.30;2.83;;;9.60;90.00;;;;;;5058681;28;20032;-39
2022/11/10 04:38:56;;;;;;;19.88;3.28;;;9.60;90.00;;;;;;5065214;28;20039;-39
2022/11/10 04:41:22;;;;;;;18.80;4.20;;;9.50;90.10;;;;;;5052827;28;20473;-37
2022/11/10 04:43:48;;;;;;;15.43;3.90;;;9.50;90.10;;;;;;5052895;28;20056;-37
2022/11/10 04:46:19;;;;;;;13.68;3.97;;;9.50;90.10;;;;;;5035002;28;20036;-39
2022/11/10 04:48:45;;;;;;;15.02;2.70;;;9.50;90.20;;;;;;5052924;28;20040;-39
2022/11/10 04:51:11;;;;;;;25.05;4.07;;;9.50;90.20;;;;;;5053291;28;20033;-38
2022/11/10 04:53:36;;;;;;;10.80;3.45;;;9.50;90.30;;;;;;5052898;28;20428;-38
2022/11/10 04:56:02;;;;;;;19.98;4.15;;;9.40;90.40;;;;;;5052834;28;20108;-38
2022/11/10 04:58:28;;;;;;;17.08;3.85;;;9.40;90.30;;;;;;5034862;28;20025;-40
2022/11/10 05:00:53;;;;;;;9.27;3.10;;;9.30;90.40;;;;;;5035015;28;20033;-38
2022/11/10 05:03:19;;;;;;;14.63;3.15;;;9.40;90.30;;;;;;5052777;28;20025;-39
2022/11/10 05:05:45;;;;;;;14.52;3.42;;;9.40;90.40;;;;;;5035347;28;20029;-39
2022/11/10 05:08:11;;;;;;;15.25;4.85;;;9.40;90.40;;;;;;5053018;28;20036;-38
2022/11/10 05:10:37;;;;;;;11.55;2.85;;;9.30;90.50;;;;;;5052458;28;20068;-39
2022/11/10 05:13:03;;;;;;;14.65;3.45;;;9.30;90.50;;;;;;5052881;28;20033;-39
2022/11/10 05:15:31;;;;;;;14.75;3.17;;;9.30;90.60;;;;;;5053005;28;20060;-39
2022/11/10 05:17:57;;;;;;;14.60;3.65;;;9.30;90.80;;;;;;5035576;28;20017;-38
2022/11/10 05:20:24;;;;;;;23.83;3.42;;;9.30;90.80;;;;;;5056398;28;20029;-38
2022/11/10 05:25:39;;;;;;;33.85;6.57;;;9.30;90.90;;;;;;5056672;28;20097;-38
2022/11/10 05:28:07;;;;;;;11.82;3.20;;;9.30;90.90;;;;;;5056410;28;20473;-38
2022/11/10 05:30:34;;;;;;;10.25;4.05;;;9.30;90.80;;;;;;5056226;28;20033;-39
2022/11/10 05:33:00;;;;;;;17.67;3.50;;;9.30;91.00;;;;;;5055952;28;20025;-38
2022/11/10 05:35:25;;;;;;;7.82;2.45;;;9.30;90.80;;;;;;5056376;28;20104;-38
2022/11/10 05:37:51;;;;;;;18.52;3.75;;;9.30;91.00;;;;;;5056641;28;20025;-39
2022/11/10 05:40:17;;;;;;;13.77;3.50;;;9.30;91.00;;;;;;5055469;28;20025;-40
2022/11/10 05:42:47;;;;;;;15.82;3.72;;;9.30;90.90;;;;;;5054961;28;20025;-40
2022/11/10 05:45:14;;;;;;;12.77;3.35;;;9.30;90.80;;;;;;5056238;28;20481;-38
2022/11/10 05:47:40;;;;;;;14.05;3.45;;;9.30;90.90;;;;;;5055921;28;20036;-40
2022/11/10 05:50:07;;;;;;;15.35;5.03;;;9.30;90.80;;;;;;5055576;28;20473;-38
2022/11/10 05:52:33;;;;;;;14.10;3.30;;;9.30;91.00;;;;;;5037845;28;20025;-39
2022/11/10 05:54:59;;;;;;;11.52;4.20;;;9.30;91.00;;;;;;5055348;28;20025;-38
2022/11/10 05:57:25;;;;;;;10.80;3.25;;;9.20;91.00;;;;;;5055451;28;20036;-38
2022/11/10 05:59:51;;;;;;;14.55;2.80;;;9.20;91.10;;;;;;5037743;28;20032;-38
2022/11/10 06:02:16;;;;;;;12.55;4.45;;;9.20;91.30;;;;;;5055313;28;20469;-40
2022/11/10 06:04:42;;;;;;;10.38;2.90;;;9.10;91.10;;;;;;5055418;28;20021;-38
2022/11/10 06:07:08;;;;;;;15.90;3.53;;;9.10;91.30;;;;;;5055166;28;20021;-43
2022/11/10 06:09:34;;;;;;;8.57;3.00;;;9.20;91.40;;;;;;5054970;28;20048;-39
2022/11/10 06:12:00;;;;;;;13.20;2.72;;;9.10;91.40;;;;;;5055327;28;20064;-41
2022/11/10 06:14:26;;;;;;;21.02;6.85;;;9.10;91.30;;;;;;5055780;28;20021;-38
2022/11/10 06:16:51;;;;;;;13.68;2.90;;;9.10;91.60;;;;;;5055219;28;20025;-39
2022/11/10 06:19:17;;;;;;;19.90;3.63;;;9.10;91.50;;;;;;5055235;28;20063;-39
2022/11/10 06:21:43;;;;;;;13.93;3.60;;;9.20;91.50;;;;;;5055225;28;20025;-38
2022/11/10 16:08:40;;;;;;;17.38;3.78;;;13.10;73.70;;;;;;5173947;27;20457;-60
2022/11/10 16:11:16;;;;;;;11.75;2.90;;;13.20;73.60;;;;;;5152200;27;20103;-62
2022/11/10 16:13:42;;;;;;;4.40;2.33;;;13.20;73.40;;;;;;5151931;27;20030;-61
2022/11/10 16:16:16;;;;;;;11.43;5.95;;;13.30;73.30;;;;;;5150820;27;20039;-63
2022/11/10 16:18:42;;;;;;;10.98;4.53;;;13.30;73.10;;;;;;5152196;27;20023;-62
2022/11/10 16:21:24;;;;;;;9.63;3.05;;;13.30;73.10;;;;;;5152201;27;20492;-62
2022/11/10 16:23:51;;;;;;;6.38;2.08;;;13.30;73.10;;;;;;5150677;27;20026;-62
2022/11/10 16:26:20;;;;;;;13.82;2.45;;;13.10;73.50;;;;;;5150531;27;20022;-61
2022/11/10 16:28:46;;;;;;;5.07;2.35;;;13.30;73.40;;;;;;5151881;27;20026;-62
2022/11/10 16:31:16;;;;;;;9.02;2.28;;;13.10;73.50;;;;;;5151546;27;20510;-61
2022/11/10 16:33:43;;;;;;;9.80;3.30;;;13.10;73.60;;;;;;5152613;27;20029;-61
2022/11/10 16:36:30;;;;;;;14.18;4.40;;;13.10;73.70;;;;;;5151546;27;20043;-62
2022/11/10 16:38:56;;;;;;;10.95;2.80;;;13.00;74.00;;;;;;5148874;27;20039;-63
2022/11/10 16:41:22;;;;;;;6.40;2.15;;;13.10;74.00;;;;;;5131073;28;20042;-61
2022/11/10 16:43:48;;;;;;;8.02;2.60;;;13.00;74.00;;;;;;5130911;28;20023;-62
2022/11/10 16:46:27;;;;;;;14.45;3.22;;;12.90;74.20;;;;;;5130387;28;20035;-61
2022/11/10 16:48:56;;;;;;;12.88;3.20;;;12.80;74.60;;;;;;5130854;28;20015;-62
2022/11/10 16:51:42;;;;;;;13.80;4.03;;;12.80;74.50;;;;;;5130435;28;20084;-62
2022/11/10 16:54:10;;;;;;;13.57;5.30;;;12.80;74.80;;;;;;5131029;28;20043;-62
2022/11/10 16:56:36;;;;;;;16.67;3.45;;;12.80;74.90;;;;;;5130381;28;20061;-63
2022/11/10 16:59:03;;;;;;;8.35;2.17;;;12.80;74.70;;;;;;5130358;28;20031;-61
2022/11/10 17:01:32;;;;;;;9.02;2.85;;;12.80;74.70;;;;;;5130638;28;20078;-63
2022/11/10 17:04:01;;;;;;;12.30;2.85;;;12.70;75.20;;;;;;5130497;28;20034;-62
2022/11/10 17:06:28;;;;;;;9.07;2.72;;;12.80;75.20;;;;;;5129125;28;20024;-62
2022/11/10 17:08:58;;;;;;;13.25;3.00;;;12.70;75.40;;;;;;5130479;28;20095;-66
2022/11/10 17:11:24;;;;;;;7.53;2.30;;;12.60;75.50;;;;;;5130631;28;20483;-63
2022/11/10 17:13:50;;;;;;;9.75;5.05;;;12.50;75.80;;;;;;5130171;28;20482;-62
2022/11/10 17:16:30;;;;;;;8.85;3.10;;;12.60;75.70;;;;;;5130516;27;20072;-64
2022/11/10 17:18:58;;;;;;;8.55;2.88;;;12.50;75.70;;;;;;5104276;28;20027;-63
2022/11/10 17:21:25;;;;;;;8.90;2.95;;;12.50;75.60;;;;;;5116736;28;20031;-62
2022/11/10 17:23:51;;;;;;;8.10;2.53;;;12.40;75.90;;;;;;5116433;28;20032;-62
2022/11/10 17:26:19;;;;;;;8.13;3.63;;;12.50;75.60;;;;;;5114940;28;20030;-63
2022/11/10 17:28:45;;;;;;;8.75;2.30;;;12.50;75.60;;;;;;5116088;28;20023;-62
2022/11/10 17:31:12;;;;;;;5.25;2.60;;;12.40;75.70;;;;;;5116307;28;20024;-62
2022/11/10 17:33:38;;;;;;;8.07;2.28;;;12.50;75.50;;;;;;5116462;28;20099;-62
2022/11/10 17:36:10;;;;;;;11.77;4.03;;;12.40;75.80;;;;;;5116497;28;20076;-62
2022/11/10 17:38:37;;;;;;;7.03;3.38;;;12.40;75.80;;;;;;5117008;28;20028;-61
2022/11/10 17:41:03;;;;;;;7.55;3.20;;;12.40;75.70;;;;;;5115275;28;20023;-61
2022/11/10 17:43:28;;;;;;;15.38;6.45;;;12.40;75.90;;;;;;5115242;28;20428;-62
2022/11/10 17:45:54;;;;;;;10.05;3.33;;;12.30;76.00;;;;;;5116521;28;20592;-61
2022/11/10 17:48:20;;;;;;;19.00;4.45;;;12.20;76.60;;;;;;5115088;28;20028;-61
2022/11/10 17:50:46;;;;;;;9.25;3.22;;;12.20;77.20;;;;;;5115064;28;20506;-62
2022/11/10 17:53:19;;;;;;;12.88;3.70;;;12.30;76.50;;;;;;5116620;28;20031;-63
2022/11/10 17:55:46;;;;;;;12.02;5.53;;;12.20;76.60;;;;;;5117253;28;20020;-61
2022/11/10 17:58:13;;;;;;;9.73;2.65;;;12.20;76.90;;;;;;5114858;28;20028;-62
2022/11/10 18:00:39;;;;;;;10.10;2.60;;;12.30;76.40;;;;;;5116483;28;20464;-62
2022/11/10 18:03:07;;;;;;;7.95;2.88;;;12.30;76.20;;;;;;5114639;28;20031;-61
2022/11/10 18:05:33;;;;;;;5.65;2.58;;;12.20;76.30;;;;;;5114646;28;20027;-61
2022/11/10 18:07:59;;;;;;;5.82;2.75;;;12.30;76.20;;;;;;5114272;28;20051;-63
2022/11/10 18:10:25;;;;;;;10.52;2.83;;;12.20;76.00;;;;;;5115969;28;20023;-64
2022/11/10 18:12:50;;;;;;;6.63;1.98;;;12.30;75.80;;;;;;5116253;28;20026;-62
2022/11/10 18:15:17;;;;;;;9.82;2.63;;;12.30;75.60;;;;;;5115727;28;20023;-61
2022/11/10 18:17:42;;;;;;;9.27;2.13;;;12.30;75.20;;;;;;5116043;28;20024;-62
2022/11/10 18:20:12;;;;;;;8.65;2.85;;;12.30;75.40;;;;;;5115933;28;20019;-62
2022/11/10 18:22:38;;;;;;;5.33;1.90;;;12.20;75.70;;;;;;5114727;28;20046;-63
2022/11/10 18:25:06;;;;;;;5.15;2.08;;;12.00;75.90;;;;;;5114597;28;20028;-63
2022/11/10 18:27:32;;;;;;;10.63;3.00;;;12.10;76.20;;;;;;5115541;28;20027;-62
2022/11/10 18:29:58;;;;;;;9.50;2.50;;;11.90;76.60;;;;;;5114760;28;20024;-61
2022/11/10 18:32:24;;;;;;;7.70;2.53;;;12.10;76.00;;;;;;5115973;28;20478;-63
2022/11/10 18:34:49;;;;;;;4.28;1.60;;;12.10;75.80;;;;;;5114217;28;20019;-62
2022/11/10 18:37:16;;;;;;;6.60;1.92;;;12.10;75.60;;;;;;5114911;28;20030;-61
2022/11/10 18:39:41;;;;;;;6.25;2.40;;;12.10;75.20;;;;;;5096845;28;20055;-63
2022/11/10 18:42:08;;;;;;;12.05;4.03;;;12.20;75.00;;;;;;5115603;28;20019;-62
2022/11/10 18:44:37;;;;;;;6.32;2.58;;;12.20;74.60;;;;;;5115532;28;20020;-63
2022/11/10 18:47:04;;;;;;;7.57;2.33;;;12.30;74.50;;;;;;5113705;28;20100;-62
2022/11/10 18:49:30;;;;;;;7.80;3.35;;;12.30;74.20;;;;;;5115049;28;20064;-62
2022/11/10 18:51:57;;;;;;;8.13;3.00;;;12.20;74.50;;;;;;5115172;28;20383;-63
2022/11/10 18:54:33;;;;;;;9.43;1.95;;;12.20;74.60;;;;;;5114162;28;20024;-63
2022/11/10 18:57:00;;;;;;;7.57;2.03;;;12.10;75.00;;;;;;5114244;28;20387;-63
2022/11/10 18:59:26;;;;;;;5.10;3.05;;;12.10;74.80;;;;;;5113755;28;20429;-64
2022/11/10 19:01:52;;;;;;;11.20;2.50;;;12.00;74.90;;;;;;5115190;28;20035;-62
2022/11/10 19:04:18;;;;;;;4.78;1.90;;;11.90;75.30;;;;;;5114659;28;20489;-62
2022/11/10 19:06:44;;;;;;;8.93;5.60;;;11.90;75.70;;;;;;5114386;28;20119;-63
2022/11/10 19:09:10;;;;;;;7.35;3.63;;;11.80;75.90;;;;;;5113111;28;20031;-62
2022/11/10 19:11:36;;;;;;;9.18;5.72;;;11.80;76.10;;;;;;5114399;28;20534;-61
2022/11/10 19:14:01;;;;;;;15.30;5.32;;;11.70;76.40;;;;;;5114303;28;20062;-62
2022/11/10 19:16:28;;;;;;;5.05;2.60;;;11.80;76.80;;;;;;5113699;28;20471;-62
2022/11/10 19:18:55;;;;;;;8.75;2.65;;;11.70;76.90;;;;;;5113672;28;20115;-63
2022/11/10 19:21:27;;;;;;;6.40;2.03;;;11.70;77.10;;;;;;5114460;28;20023;-63
2022/11/10 19:23:57;;;;;;;10.13;2.33;;;11.70;77.70;;;;;;5113313;28;20463;-66
2022/11/10 19:26:24;;;;;;;4.97;2.10;;;11.70;78.00;;;;;;5114517;28;20418;-62
2022/11/10 19:28:52;;;;;;;6.50;2.33;;;11.70;78.20;;;;;;5114655;28;20027;-64
2022/11/10 19:31:21;;;;;;;15.52;2.45;;;11.60;78.70;;;;;;5114385;28;20044;-61
2022/11/10 19:33:47;;;;;;;15.77;3.63;;;11.60;78.90;;;;;;5114678;28;20444;-63
2022/11/10 19:36:16;;;;;;;6.40;2.15;;;11.60;79.30;;;;;;5113155;28;20027;-63
2022/11/10 19:38:42;;;;;;;8.32;2.63;;;11.40;79.50;;;;;;5112871;28;20092;-63
2022/11/10 19:41:13;;;;;;;5.88;2.05;;;11.40;79.60;;;;;;5113736;28;20080;-62
2022/11/10 19:43:39;;;;;;;12.35;3.67;;;11.40;80.10;;;;;;5112658;28;20034;-62
2022/11/10 19:46:13;;;;;;;7.13;2.95;;;11.50;79.70;;;;;;5114143;28;20028;-62
2022/11/10 19:48:38;;;;;;;9.50;3.78;;;11.40;79.60;;;;;;5112888;28;20501;-61
2022/11/10 19:51:05;;;;;;;9.15;2.95;;;11.30;80.20;;;;;;5114123;28;20028;-62
2022/11/10 19:53:31;;;;;;;6.28;4.57;;;11.40;80.10;;;;;;5114113;28;20026;-63
2022/11/10 19:56:02;;;;;;;13.48;3.03;;;11.30;80.10;;;;;;5113709;28;20043;-63
2022/11/10 19:58:29;;;;;;;9.55;3.05;;;11.40;79.90;;;;;;5113397;28;20092;-61
2022/11/10 20:00:55;;;;;;;8.70;2.15;;;11.30;80.00;;;;;;5113459;28;20082;-63
2022/11/10 20:03:22;;;;;;;10.70;2.45;;;11.30;80.20;;;;;;5113865;28;20070;-61
2022/11/10 20:06:00;;;;;;;6.35;2.40;;;11.30;80.10;;;;;;5113930;28;20077;-63
2022/11/10 20:08:26;;;;;;;4.53;2.22;;;11.30;80.00;;;;;;5113659;28;20602;-63
2022/11/10 20:10:52;;;;;;;13.20;4.55;;;11.30;80.00;;;;;;5114174;28;20031;-63
2022/11/10 20:13:17;;;;;;;8.77;2.47;;;11.20;80.20;;;;;;5113598;28;20084;-62
2022/11/10 20:15:43;;;;;;;9.73;2.97;;;11.10;80.30;;;;;;5114061;28;20027;-61
2022/11/10 20:18:10;;;;;;;8.43;3.60;;;11.10;80.20;;;;;;5114387;28;20023;-61
2022/11/10 20:20:38;;;;;;;8.73;2.60;;;11.10;80.30;;;;;;5114012;28;20435;-62
2022/11/10 20:23:06;;;;;;;10.05;2.90;;;11.00;80.30;;;;;;5112451;28;20027;-62
2022/11/10 20:25:32;;;;;;;9.23;4.10;;;11.10;80.30;;;;;;5113888;28;20040;-61
2022/11/10 20:28:04;;;;;;;7.15;3.20;;;11.10;80.00;;;;;;5114304;28;20407;-61
2022/11/10 20:30:35;;;;;;;6.53;2.10;;;11.10;80.30;;;;;;5114126;28;20051;-63
2022/11/10 20:33:01;;;;;;;;;;;11.10;79.80;;;;;;5113964;28;20069;-61
2022/11/10 20:35:27;;;;;;;7.30;2.90;;;11.00;80.00;;;;;;5113457;28;19933;-63
2022/11/10 20:37:53;;;;;;;7.20;2.97;;;10.90;80.00;;;;;;5112024;28;20449;-61
2022/11/10 20:40:18;;;;;;;10.60;5.45;;;10.80;80.20;;;;;;5113591;28;20465;-63
2022/11/10 20:42:44;;;;;;;6.60;2.67;;;10.80;80.30;;;;;;5114175;28;20026;-63
2022/11/10 20:45:10;;;;;;;5.28;2.58;;;10.80;80.40;;;;;;5114946;28;20027;-63
2022/11/10 20:47:36;;;;;;;6.80;2.38;;;10.80;80.30;;;;;;5114765;28;20027;-64
2022/11/10 20:50:02;;;;;;;4.95;3.20;;;10.80;80.10;;;;;;5114700;28;20475;-64
2022/11/10 20:52:28;;;;;;;4.70;2.47;;;10.80;80.00;;;;;;5115560;28;20055;-64
2022/11/10 20:54:53;;;;;;;13.23;3.33;;;10.80;80.20;;;;;;5118256;28;20073;-65
2022/11/10 20:57:19;;;;;;;11.02;2.70;;;10.70;80.40;;;;;;5118699;28;20035;-63
2022/11/10 20:59:45;;;;;;;7.13;2.75;;;10.80;80.00;;;;;;5116000;28;20521;-63
2022/11/10 21:02:11;;;;;;;9.40;2.15;;;10.80;80.00;;;;;;5116476;28;20110;-64
2022/11/10 21:04:37;;;;;;;9.98;4.38;;;10.80;79.70;;;;;;5117204;28;20015;-62
2022/11/10 21:07:03;;;;;;;14.07;3.22;;;10.80;79.80;;;;;;5115873;28;20043;-62
2022/11/10 21:09:29;;;;;;;13.00;2.72;;;10.80;79.70;;;;;;5117098;28;20403;-62
2022/11/10 21:14:39;;;;;;;7.68;2.50;;;10.70;79.90;;;;;;5117325;28;20485;-62
2022/11/10 21:17:05;;;;;;;6.97;2.30;;;10.70;80.00;;;;;;5115600;28;20118;-61
2022/11/10 21:19:34;;;;;;;6.00;3.20;;;10.70;80.00;;;;;;5117047;28;20114;-61
2022/11/10 21:22:00;;;;;;;7.18;3.25;;;10.70;80.00;;;;;;5116753;28;20023;-63
2022/11/10 21:24:29;;;;;;;6.40;2.20;;;10.70;79.90;;;;;;5116957;28;20020;-63
2022/11/10 21:26:56;;;;;;;5.82;2.85;;;10.70;79.80;;;;;;5116683;28;20024;-62
2022/11/10 21:29:22;;;;;;;7.43;2.72;;;10.70;80.00;;;;;;5116353;28;20020;-63
2022/11/10 21:31:48;;;;;;;6.72;2.83;;;10.80;80.10;;;;;;5116883;28;20034;-62
2022/11/10 21:34:13;;;;;;;7.75;3.13;;;10.50;80.10;;;;;;5116538;28;20047;-61
2022/11/10 21:36:39;;;;;;;6.90;3.25;;;10.50;80.60;;;;;;5116531;28;20024;-62
2022/11/10 21:39:05;;;;;;;4.85;2.85;;;10.50;80.50;;;;;;5116534;28;20347;-62
2022/11/10 21:41:31;;;;;;;9.80;3.17;;;10.50;80.40;;;;;;5116649;28;20536;-61
2022/11/10 21:43:57;;;;;;;13.48;3.28;;;10.60;80.40;;;;;;5115103;28;20066;-63
2022/11/10 21:46:23;;;;;;;9.80;2.83;;;10.60;80.40;;;;;;5115409;28;20051;-63
2022/11/10 21:48:49;;;;;;;6.45;3.70;;;10.50;80.50;;;;;;5116636;28;20093;-63
2022/11/10 21:51:15;;;;;;;12.20;5.07;;;10.50;80.80;;;;;;5116849;28;20077;-62
2022/11/10 21:53:41;;;;;;;6.68;2.50;;;10.50;80.50;;;;;;5115979;28;20031;-63
2022/11/10 21:56:08;;;;;;;10.23;4.30;;;10.40;80.60;;;;;;5114672;28;20020;-62
2022/11/10 21:58:35;;;;;;;8.55;3.17;;;10.40;80.70;;;;;;5116568;28;20039;-61
2022/11/10 22:01:01;;;;;;;6.40;2.92;;;10.30;80.80;;;;;;5114674;28;20028;-62
2022/11/10 22:03:28;;;;;;;11.18;3.70;;;10.40;80.80;;;;;;5114880;28;20047;-62
2022/11/10 22:05:54;;;;;;;4.05;2.70;;;10.40;80.80;;;;;;5116185;28;20031;-62
2022/11/10 22:08:22;;;;;;;10.65;3.05;;;10.40;80.80;;;;;;5097711;28;20040;-62
2022/11/10 22:19:10;;;;;;;3.92;2.30;;;10.40;80.90;;;;;;5115760;28;20023;-62
2022/11/10 22:21:35;;;;;;;5.80;2.67;;;10.30;81.00;;;;;;5115519;28;20027;-62
2022/11/10 22:26:45;;;;;;;3.65;2.40;;;10.30;81.00;;;;;;5115432;28;20035;-61
2022/11/10 22:29:11;;;;;;;4.68;2.40;;;10.20;81.20;;;;;;5116418;28;20023;-62
2022/11/10 22:31:37;;;;;;;8.57;2.75;;;10.20;81.20;;;;;;5115350;28;20021;-62
2022/11/10 22:34:02;;;;;;;8.45;2.75;;;10.30;81.20;;;;;;5115145;28;20019;-62
2022/11/10 22:36:28;;;;;;;9.02;2.67;;;10.30;80.90;;;;;;5115201;28;20035;-61
2022/11/10 22:38:54;;;;;;;8.55;2.33;;;10.30;81.30;;;;;;5115032;28;20023;-64
2022/11/10 22:44:04;;;;;;;5.30;2.63;;;10.20;81.30;;;;;;5115395;28;20026;-63
2022/11/10 22:46:32;;;;;;;11.95;3.00;;;10.20;81.10;;;;;;5113676;28;20020;-63
2022/11/10 22:48:58;;;;;;;8.10;2.33;;;10.30;81.20;;;;;;5113677;28;20024;-62
2022/11/10 22:51:26;;;;;;;10.82;4.18;;;10.30;81.20;;;;;;5113675;28;20175;-61
2022/11/10 22:53:52;;;;;;;11.07;3.03;;;10.30;80.90;;;;;;5097129;28;20035;-61
2022/11/10 22:56:18;;;;;;;6.22;2.28;;;10.30;80.90;;;;;;5115562;28;20447;-62
2022/11/10 22:58:44;;;;;;;10.45;2.75;;;10.30;80.90;;;;;;5115058;28;20036;-61
2022/11/10 23:01:11;;;;;;;10.80;3.03;;;10.30;80.70;;;;;;5114905;28;20487;-62